sensor_id;sensor_type;location;lat;lon;timestamp;temperature;humidity
22558;DHT22;11445;53.816;8.902;2023-07-16T00:00:22;18.20;99.90
22558;DHT22;11445;53.816;8.902;2023-07-16T00:02:49;18.30;99.90
22558;DHT22;11445;53.816;8.902;2023-07-16T00:05:16;18.30;99.90
22558;DHT22;11445;53.816;8.902;2023-07-16T00:07:42;18.30;99.90
22558;DHT22;11445;53.816;8.902;2023-07-16T00:10:10;18.30;99.90
22558;DHT22;11445;53.816;8.902;2023-07-16T00:12:38;18.30;99.90
22558;DHT22;11445;53.816;8.902;2023-07-16T00:15:06;18.30;99.90
22558;DHT22;11445;53.816;8.902;2023-07-16T00:17:33;18.20;99.90
22558;DHT22;11445;53.816;8.902;2023-07-16T00:20:00;18.20;99.90
22558;DHT22;11445;53.816;8.902;2023-07-16T00:22:26;18.20;99.90
22558;DHT22;11445;53.816;8.902;2023-07-16T00:24:53;18.20;99.90
22558;DHT22;11445;53.816;8.902;2023-07-16T00:27:20;18.20;99.90
22558;DHT22;11445;53.816;8.902;2023-07-16T00:29:48;18.20;99.90
22558;DHT22;11445;53.816;8.902;2023-07-16T00:32:15;18.20;99.90
22558;DHT22;11445;53.816;8.902;2023-07-16T00:34:42;18.20;99.90
22558;DHT22;11445;53.816;8.902;2023-07-16T00:37:08;18.10;99.90
22558;DHT22;11445;53.816;8.902;2023-07-16T00:39:35;18.10;99.90
22558;DHT22;11445;53.816;8.902;2023-07-16T00:42:02;18.10;99.90
22558;DHT22;11445;53.816;8.902;2023-07-16T00:44:29;18.00;99.90
22558;DHT22;11445;53.816;8.902;2023-07-16T00:46:57;18.00;99.90
22558;DHT22;11445;53.816;8.902;2023-07-16T00:49:24;18.00;99.90
22558;DHT22;11445;53.816;8.902;2023-07-16T00:51:52;18.00;99.90
22558;DHT22;11445;53.816;8.902;2023-07-16T00:54:19;18.00;99.90
22558;DHT22;11445;53.816;8.902;2023-07-16T00:56:46;18.00;99.90
22558;DHT22;11445;53.816;8.902;2023-07-16T00:59:13;17.90;99.90
22558;DHT22;11445;53.816;8.902;2023-07-16T01:01:40;17.90;99.90
22558;DHT22;11445;53.816;8.902;2023-07-16T01:04:08;17.90;99.90
22558;DHT22;11445;53.816;8.902;2023-07-16T01:06:37;17.90;99.90
22558;DHT22;11445;53.816;8.902;2023-07-16T01:09:07;17.90;99.90
22558;DHT22;11445;53.816;8.902;2023-07-16T01:11:35;17.90;99.90
22558;DHT22;11445;53.816;8.902;2023-07-16T01:14:03;17.90;99.90
22558;DHT22;11445;53.816;8.902;2023-07-16T01:16:29;17.90;99.90
22558;DHT22;11445;53.816;8.902;2023-07-16T01:18:57;17.90;99.90
22558;DHT22;11445;53.816;8.902;2023-07-16T01:21:29;17.90;99.90
22558;DHT22;11445;53.816;8.902;2023-07-16T01:24:10;17.90;99.90
22558;DHT22;11445;53.816;8.902;2023-07-16T01:26:55;17.80;99.90
22558;DHT22;11445;53.816;8.902;2023-07-16T01:29:31;17.90;99.90
22558;DHT22;11445;53.816;8.902;2023-07-16T01:32:00;17.90;99.90
22558;DHT22;11445;53.816;8.902;2023-07-16T01:34:31;17.90;99.90
22558;DHT22;11445;53.816;8.902;2023-07-16T01:36:59;17.90;99.90
22558;DHT22;11445;53.816;8.902;2023-07-16T01:39:26;17.90;99.90
22558;DHT22;11445;53.816;8.902;2023-07-16T01:41:53;17.90;99.90
22558;DHT22;11445;53.816;8.902;2023-07-16T01:44:20;17.90;99.90
22558;DHT22;11445;53.816;8.902;2023-07-16T01:47:00;17.90;99.90
22558;DHT22;11445;53.816;8.902;2023-07-16T01:49:30;17.90;99.90
22558;DHT22;11445;53.816;8.902;2023-07-16T01:51:57;17.90;99.90
22558;DHT22;11445;53.816;8.902;2023-07-16T01:54:23;17.90;99.90
22558;DHT22;11445;53.816;8.902;2023-07-16T01:56:50;17.90;99.90
22558;DHT22;11445;53.816;8.902;2023-07-16T01:59:17;17.90;99.90
22558;DHT22;11445;53.816;8.902;2023-07-16T02:01:44;17.90;99.90
22558;DHT22;11445;53.816;8.902;2023-07-16T02:04:12;17.90;99.90
22558;DHT22;11445;53.816;8.902;2023-07-16T02:06:39;17.90;99.90
22558;DHT22;11445;53.816;8.902;2023-07-16T02:09:05;17.90;99.90
22558;DHT22;11445;53.816;8.902;2023-07-16T02:11:32;17.90;99.90
22558;DHT22;11445;53.816;8.902;2023-07-16T02:13:59;17.90;99.90
22558;DHT22;11445;53.816;8.902;2023-07-16T02:16:26;17.80;99.90
22558;DHT22;11445;53.816;8.902;2023-07-16T02:18:52;17.80;99.90
22558;DHT22;11445;53.816;8.902;2023-07-16T02:21:21;17.80;99.90
22558;DHT22;11445;53.816;8.902;2023-07-16T02:23:47;17.80;99.90
22558;DHT22;11445;53.816;8.902;2023-07-16T02:26:14;17.80;99.90
22558;DHT22;11445;53.816;8.902;2023-07-16T02:28:41;17.80;99.90
22558;DHT22;11445;53.816;8.902;2023-07-16T02:31:08;17.80;99.90
22558;DHT22;11445;53.816;8.902;2023-07-16T02:33:34;17.80;99.90
22558;DHT22;11445;53.816;8.902;2023-07-16T02:36:01;17.80;99.90
22558;DHT22;11445;53.816;8.902;2023-07-16T02:38:29;17.80;99.90
22558;DHT22;11445;53.816;8.902;2023-07-16T02:40:56;17.80;99.90
22558;DHT22;11445;53.816;8.902;2023-07-16T02:43:23;17.70;99.90
22558;DHT22;11445;53.816;8.902;2023-07-16T02:45:50;17.70;99.90
22558;DHT22;11445;53.816;8.902;2023-07-16T02:48:17;17.70;99.90
22558;DHT22;11445;53.816;8.902;2023-07-16T02:50:43;17.80;99.90
22558;DHT22;11445;53.816;8.902;2023-07-16T02:53:10;17.80;99.90
22558;DHT22;11445;53.816;8.902;2023-07-16T02:55:38;17.80;99.90
22558;DHT22;11445;53.816;8.902;2023-07-16T02:58:05;17.80;99.90
22558;DHT22;11445;53.816;8.902;2023-07-16T03:00:32;17.80;99.90
22558;DHT22;11445;53.816;8.902;2023-07-16T03:02:59;17.80;99.90
22558;DHT22;11445;53.816;8.902;2023-07-16T03:05:28;17.80;99.90
22558;DHT22;11445;53.816;8.902;2023-07-16T03:07:55;17.80;99.90
22558;DHT22;11445;53.816;8.902;2023-07-16T03:10:22;17.80;99.90
22558;DHT22;11445;53.816;8.902;2023-07-16T03:12:53;17.70;99.90
22558;DHT22;11445;53.816;8.902;2023-07-16T03:15:20;17.70;99.90
22558;DHT22;11445;53.816;8.902;2023-07-16T03:17:47;17.70;99.90
22558;DHT22;11445;53.816;8.902;2023-07-16T03:20:13;17.70;99.90
22558;DHT22;11445;53.816;8.902;2023-07-16T03:22:40;17.70;99.90
22558;DHT22;11445;53.816;8.902;2023-07-16T03:25:08;17.60;99.90
22558;DHT22;11445;53.816;8.902;2023-07-16T03:27:35;17.60;99.90
22558;DHT22;11445;53.816;8.902;2023-07-16T03:30:03;17.60;99.90
22558;DHT22;11445;53.816;8.902;2023-07-16T03:32:30;17.50;99.90
22558;DHT22;11445;53.816;8.902;2023-07-16T03:34:57;17.50;99.90
22558;DHT22;11445;53.816;8.902;2023-07-16T03:37:24;17.50;99.90
22558;DHT22;11445;53.816;8.902;2023-07-16T03:39:51;17.50;99.90
22558;DHT22;11445;53.816;8.902;2023-07-16T03:42:17;17.50;99.90
22558;DHT22;11445;53.816;8.902;2023-07-16T03:44:44;17.40;99.90
22558;DHT22;11445;53.816;8.902;2023-07-16T03:47:13;17.40;99.90
22558;DHT22;11445;53.816;8.902;2023-07-16T03:49:39;17.40;99.90
22558;DHT22;11445;53.816;8.902;2023-07-16T03:52:06;17.40;99.90
22558;DHT22;11445;53.816;8.902;2023-07-16T03:54:33;17.40;99.90
22558;DHT22;11445;53.816;8.902;2023-07-16T03:57:00;17.40;99.90
22558;DHT22;11445;53.816;8.902;2023-07-16T03:59:28;17.40;99.90
22558;DHT22;11445;53.816;8.902;2023-07-16T04:01:55;17.30;99.90
22558;DHT22;11445;53.816;8.902;2023-07-16T04:04:23;17.30;99.90
22558;DHT22;11445;53.816;8.902;2023-07-16T04:06:50;17.30;99.90
22558;DHT22;11445;53.816;8.902;2023-07-16T04:09:16;17.40;99.90
22558;DHT22;11445;53.816;8.902;2023-07-16T04:11:43;17.30;99.90
22558;DHT22;11445;53.816;8.902;2023-07-16T04:14:10;17.30;99.90
22558;DHT22;11445;53.816;8.902;2023-07-16T04:16:37;17.30;99.90
22558;DHT22;11445;53.816;8.902;2023-07-16T04:19:03;17.30;99.90
22558;DHT22;11445;53.816;8.902;2023-07-16T04:21:32;17.30;99.90
22558;DHT22;11445;53.816;8.902;2023-07-16T04:23:59;17.30;99.90
22558;DHT22;11445;53.816;8.902;2023-07-16T04:26:26;17.20;99.90
22558;DHT22;11445;53.816;8.902;2023-07-16T04:28:52;17.20;99.90
22558;DHT22;11445;53.816;8.902;2023-07-16T04:31:19;17.20;99.90
22558;DHT22;11445;53.816;8.902;2023-07-16T04:33:46;17.20;99.90
22558;DHT22;11445;53.816;8.902;2023-07-16T04:36:13;17.30;99.90
22558;DHT22;11445;53.816;8.902;2023-07-16T04:38:41;17.20;99.90
22558;DHT22;11445;53.816;8.902;2023-07-16T04:41:08;17.30;99.90
22558;DHT22;11445;53.816;8.902;2023-07-16T04:43:35;17.30;99.90
22558;DHT22;11445;53.816;8.902;2023-07-16T04:46:01;17.30;99.90
22558;DHT22;11445;53.816;8.902;2023-07-16T04:48:28;17.40;99.90
22558;DHT22;11445;53.816;8.902;2023-07-16T04:50:55;17.40;99.90
22558;DHT22;11445;53.816;8.902;2023-07-16T04:53:22;17.40;99.90
22558;DHT22;11445;53.816;8.902;2023-07-16T04:55:51;17.50;99.90
22558;DHT22;11445;53.816;8.902;2023-07-16T04:58:17;17.50;99.90
22558;DHT22;11445;53.816;8.902;2023-07-16T05:00:44;17.50;99.90
22558;DHT22;11445;53.816;8.902;2023-07-16T05:03:12;17.50;99.90
22558;DHT22;11445;53.816;8.902;2023-07-16T05:05:39;17.60;99.90
22558;DHT22;11445;53.816;8.902;2023-07-16T05:08:05;17.70;99.90
22558;DHT22;11445;53.816;8.902;2023-07-16T05:10:32;17.70;99.90
22558;DHT22;11445;53.816;8.902;2023-07-16T05:13:01;17.70;99.90
22558;DHT22;11445;53.816;8.902;2023-07-16T05:15:29;17.80;99.90
22558;DHT22;11445;53.816;8.902;2023-07-16T05:17:55;17.80;99.90
22558;DHT22;11445;53.816;8.902;2023-07-16T05:20:23;17.80;99.90
22558;DHT22;11445;53.816;8.902;2023-07-16T05:22:50;17.90;99.90
22558;DHT22;11445;53.816;8.902;2023-07-16T05:25:17;17.90;99.90
22558;DHT22;11445;53.816;8.902;2023-07-16T05:27:44;17.90;99.90
22558;DHT22;11445;53.816;8.902;2023-07-16T05:30:12;17.90;99.90
22558;DHT22;11445;53.816;8.902;2023-07-16T05:32:40;17.90;99.90
22558;DHT22;11445;53.816;8.902;2023-07-16T05:35:07;18.00;99.90
22558;DHT22;11445;53.816;8.902;2023-07-16T05:37:34;18.00;99.90
22558;DHT22;11445;53.816;8.902;2023-07-16T05:40:01;18.10;99.90
22558;DHT22;11445;53.816;8.902;2023-07-16T05:42:29;18.10;99.90
22558;DHT22;11445;53.816;8.902;2023-07-16T05:44:55;18.10;99.90
22558;DHT22;11445;53.816;8.902;2023-07-16T05:47:24;18.10;99.90
22558;DHT22;11445;53.816;8.902;2023-07-16T05:49:50;18.20;99.90
22558;DHT22;11445;53.816;8.902;2023-07-16T05:52:17;18.20;99.90
22558;DHT22;11445;53.816;8.902;2023-07-16T05:54:44;18.20;99.90
22558;DHT22;11445;53.816;8.902;2023-07-16T05:57:11;18.30;99.90
22558;DHT22;11445;53.816;8.902;2023-07-16T05:59:38;18.30;99.90
22558;DHT22;11445;53.816;8.902;2023-07-16T06:02:05;18.40;99.90
22558;DHT22;11445;53.816;8.902;2023-07-16T06:04:33;18.40;99.90
22558;DHT22;11445;53.816;8.902;2023-07-16T06:07:00;18.40;99.90
22558;DHT22;11445;53.816;8.902;2023-07-16T06:09:27;18.50;99.90
22558;DHT22;11445;53.816;8.902;2023-07-16T06:11:54;18.50;99.90
22558;DHT22;11445;53.816;8.902;2023-07-16T06:14:20;18.50;99.90
22558;DHT22;11445;53.816;8.902;2023-07-16T06:16:47;18.60;99.90
22558;DHT22;11445;53.816;8.902;2023-07-16T06:19:14;18.60;99.90
22558;DHT22;11445;53.816;8.902;2023-07-16T06:21:42;18.60;99.90
22558;DHT22;11445;53.816;8.902;2023-07-16T06:24:09;18.70;99.90
22558;DHT22;11445;53.816;8.902;2023-07-16T06:26:36;18.70;99.90
22558;DHT22;11445;53.816;8.902;2023-07-16T06:29:02;18.80;99.90
22558;DHT22;11445;53.816;8.902;2023-07-16T06:31:29;18.80;99.90
22558;DHT22;11445;53.816;8.902;2023-07-16T06:33:56;18.90;99.90
22558;DHT22;11445;53.816;8.902;2023-07-16T06:36:23;18.90;99.90
22558;DHT22;11445;53.816;8.902;2023-07-16T06:38:51;18.90;99.90
22558;DHT22;11445;53.816;8.902;2023-07-16T06:41:18;19.00;99.90
22558;DHT22;11445;53.816;8.902;2023-07-16T06:43:45;19.00;99.90
22558;DHT22;11445;53.816;8.902;2023-07-16T06:46:12;19.10;99.90
22558;DHT22;11445;53.816;8.902;2023-07-16T06:48:38;19.10;99.90
22558;DHT22;11445;53.816;8.902;2023-07-16T06:51:05;19.20;99.90
22558;DHT22;11445;53.816;8.902;2023-07-16T06:53:32;19.20;99.90
22558;DHT22;11445;53.816;8.902;2023-07-16T06:56:01;19.30;99.90
22558;DHT22;11445;53.816;8.902;2023-07-16T06:58:31;19.20;99.90
22558;DHT22;11445;53.816;8.902;2023-07-16T07:00:58;19.30;99.90
22558;DHT22;11445;53.816;8.902;2023-07-16T07:03:25;19.40;99.90
22558;DHT22;11445;53.816;8.902;2023-07-16T07:05:52;19.40;99.90
22558;DHT22;11445;53.816;8.902;2023-07-16T07:08:19;19.50;99.90
22558;DHT22;11445;53.816;8.902;2023-07-16T07:10:48;19.50;99.90
22558;DHT22;11445;53.816;8.902;2023-07-16T07:13:16;19.60;99.90
22558;DHT22;11445;53.816;8.902;2023-07-16T07:15:43;19.60;99.90
22558;DHT22;11445;53.816;8.902;2023-07-16T07:18:09;19.70;99.90
22558;DHT22;11445;53.816;8.902;2023-07-16T07:20:36;19.80;99.90
22558;DHT22;11445;53.816;8.902;2023-07-16T07:23:03;19.80;99.90
22558;DHT22;11445;53.816;8.902;2023-07-16T07:25:30;19.90;99.90
22558;DHT22;11445;53.816;8.902;2023-07-16T07:27:57;19.90;99.90
22558;DHT22;11445;53.816;8.902;2023-07-16T07:30:25;19.90;99.90
22558;DHT22;11445;53.816;8.902;2023-07-16T07:32:52;19.90;99.90
22558;DHT22;11445;53.816;8.902;2023-07-16T07:35:19;20.00;99.90
22558;DHT22;11445;53.816;8.902;2023-07-16T07:37:46;20.00;99.90
22558;DHT22;11445;53.816;8.902;2023-07-16T07:40:13;20.10;99.90
22558;DHT22;11445;53.816;8.902;2023-07-16T07:42:40;20.10;99.90
22558;DHT22;11445;53.816;8.902;2023-07-16T07:45:07;20.20;99.90
22558;DHT22;11445;53.816;8.902;2023-07-16T07:47:35;20.20;99.90
22558;DHT22;11445;53.816;8.902;2023-07-16T07:50:02;20.20;99.90
22558;DHT22;11445;53.816;8.902;2023-07-16T07:52:29;20.30;99.90
22558;DHT22;11445;53.816;8.902;2023-07-16T07:54:55;20.30;99.90
22558;DHT22;11445;53.816;8.902;2023-07-16T07:57:22;20.40;99.90
22558;DHT22;11445;53.816;8.902;2023-07-16T07:59:49;20.50;99.90
22558;DHT22;11445;53.816;8.902;2023-07-16T08:02:20;20.50;99.90
22558;DHT22;11445;53.816;8.902;2023-07-16T08:07:24;20.70;99.90
22558;DHT22;11445;53.816;8.902;2023-07-16T08:09:51;20.80;99.90
22558;DHT22;11445;53.816;8.902;2023-07-16T08:12:18;20.80;99.90
22558;DHT22;11445;53.816;8.902;2023-07-16T08:14:45;20.70;99.90
22558;DHT22;11445;53.816;8.902;2023-07-16T08:17:11;20.80;99.90
22558;DHT22;11445;53.816;8.902;2023-07-16T08:19:38;20.80;99.90
22558;DHT22;11445;53.816;8.902;2023-07-16T08:22:05;20.80;99.90
22558;DHT22;11445;53.816;8.902;2023-07-16T08:24:33;20.80;99.90
22558;DHT22;11445;53.816;8.902;2023-07-16T08:27:00;20.70;99.90
22558;DHT22;11445;53.816;8.902;2023-07-16T08:29:27;20.70;99.90
22558;DHT22;11445;53.816;8.902;2023-07-16T08:31:54;20.60;99.90
22558;DHT22;11445;53.816;8.902;2023-07-16T08:34:20;20.60;99.90
22558;DHT22;11445;53.816;8.902;2023-07-16T08:36:47;20.70;99.90
22558;DHT22;11445;53.816;8.902;2023-07-16T08:39:14;20.80;99.90
22558;DHT22;11445;53.816;8.902;2023-07-16T08:41:46;20.70;99.90
22558;DHT22;11445;53.816;8.902;2023-07-16T08:44:13;20.70;99.90
22558;DHT22;11445;53.816;8.902;2023-07-16T08:46:40;20.80;99.90
22558;DHT22;11445;53.816;8.902;2023-07-16T08:49:07;20.90;99.90
22558;DHT22;11445;53.816;8.902;2023-07-16T08:51:34;21.00;99.90
22558;DHT22;11445;53.816;8.902;2023-07-16T08:54:02;21.10;99.90
22558;DHT22;11445;53.816;8.902;2023-07-16T08:56:29;21.10;99.90
22558;DHT22;11445;53.816;8.902;2023-07-16T08:58:58;21.20;99.90
22558;DHT22;11445;53.816;8.902;2023-07-16T09:01:25;21.20;99.90
22558;DHT22;11445;53.816;8.902;2023-07-16T09:03:53;21.20;99.90
22558;DHT22;11445;53.816;8.902;2023-07-16T09:06:20;21.30;99.90
22558;DHT22;11445;53.816;8.902;2023-07-16T09:08:47;21.30;99.90
22558;DHT22;11445;53.816;8.902;2023-07-16T09:11:13;21.40;99.90
22558;DHT22;11445;53.816;8.902;2023-07-16T09:13:44;21.40;99.90
22558;DHT22;11445;53.816;8.902;2023-07-16T09:16:12;21.60;99.90
22558;DHT22;11445;53.816;8.902;2023-07-16T09:18:42;21.70;99.90
22558;DHT22;11445;53.816;8.902;2023-07-16T09:21:09;21.70;99.90
22558;DHT22;11445;53.816;8.902;2023-07-16T09:23:36;21.80;99.90
22558;DHT22;11445;53.816;8.902;2023-07-16T09:26:03;21.90;99.90
22558;DHT22;11445;53.816;8.902;2023-07-16T09:28:31;21.90;99.90
22558;DHT22;11445;53.816;8.902;2023-07-16T09:31:04;21.80;99.90
22558;DHT22;11445;53.816;8.902;2023-07-16T09:33:33;21.80;99.90
22558;DHT22;11445;53.816;8.902;2023-07-16T09:36:01;21.80;99.90
22558;DHT22;11445;53.816;8.902;2023-07-16T09:38:29;21.70;99.90
22558;DHT22;11445;53.816;8.902;2023-07-16T09:40:56;21.60;99.90
22558;DHT22;11445;53.816;8.902;2023-07-16T09:43:24;21.60;99.90
22558;DHT22;11445;53.816;8.902;2023-07-16T09:45:50;21.50;99.90
22558;DHT22;11445;53.816;8.902;2023-07-16T09:48:17;21.60;99.90
22558;DHT22;11445;53.816;8.902;2023-07-16T09:50:50;21.80;99.90
22558;DHT22;11445;53.816;8.902;2023-07-16T09:53:20;21.90;99.90
22558;DHT22;11445;53.816;8.902;2023-07-16T09:55:48;22.00;99.90
22558;DHT22;11445;53.816;8.902;2023-07-16T09:58:18;22.00;99.90
22558;DHT22;11445;53.816;8.902;2023-07-16T10:00:46;21.90;99.90
22558;DHT22;11445;53.816;8.902;2023-07-16T10:03:15;21.90;99.90
22558;DHT22;11445;53.816;8.902;2023-07-16T10:05:42;21.90;99.90
22558;DHT22;11445;53.816;8.902;2023-07-16T10:08:18;21.80;99.90
22558;DHT22;11445;53.816;8.902;2023-07-16T10:10:47;21.80;99.90
22558;DHT22;11445;53.816;8.902;2023-07-16T10:13:15;21.80;99.90
22558;DHT22;11445;53.816;8.902;2023-07-16T10:15:52;21.90;99.90
22558;DHT22;11445;53.816;8.902;2023-07-16T10:18:24;22.00;99.90
22558;DHT22;11445;53.816;8.902;2023-07-16T10:20:51;22.00;99.90
22558;DHT22;11445;53.816;8.902;2023-07-16T10:23:20;21.90;99.90
22558;DHT22;11445;53.816;8.902;2023-07-16T10:25:58;21.80;99.90
22558;DHT22;11445;53.816;8.902;2023-07-16T10:28:25;21.60;99.90
22558;DHT22;11445;53.816;8.902;2023-07-16T10:30:52;21.60;99.90
22558;DHT22;11445;53.816;8.902;2023-07-16T10:33:19;21.40;99.90
22558;DHT22;11445;53.816;8.902;2023-07-16T10:35:46;21.30;99.90
22558;DHT22;11445;53.816;8.902;2023-07-16T10:38:13;21.30;99.90
22558;DHT22;11445;53.816;8.902;2023-07-16T10:40:41;21.20;99.90
22558;DHT22;11445;53.816;8.902;2023-07-16T10:43:09;21.20;99.90
22558;DHT22;11445;53.816;8.902;2023-07-16T10:45:36;21.20;99.90
22558;DHT22;11445;53.816;8.902;2023-07-16T10:48:03;21.30;99.90
22558;DHT22;11445;53.816;8.902;2023-07-16T10:50:32;21.30;99.90
22558;DHT22;11445;53.816;8.902;2023-07-16T10:52:59;21.40;99.90
22558;DHT22;11445;53.816;8.902;2023-07-16T10:55:26;21.40;99.90
22558;DHT22;11445;53.816;8.902;2023-07-16T10:57:56;21.50;99.90
22558;DHT22;11445;53.816;8.902;2023-07-16T11:00:23;21.60;99.90
22558;DHT22;11445;53.816;8.902;2023-07-16T11:02:50;21.70;99.90
22558;DHT22;11445;53.816;8.902;2023-07-16T11:05:18;21.60;99.90
22558;DHT22;11445;53.816;8.902;2023-07-16T11:07:45;21.60;99.90
22558;DHT22;11445;53.816;8.902;2023-07-16T11:10:12;21.60;99.90
22558;DHT22;11445;53.816;8.902;2023-07-16T11:12:39;21.60;99.90
22558;DHT22;11445;53.816;8.902;2023-07-16T11:15:08;21.70;99.90
22558;DHT22;11445;53.816;8.902;2023-07-16T11:17:37;21.80;99.90
22558;DHT22;11445;53.816;8.902;2023-07-16T11:20:07;22.00;99.90
22558;DHT22;11445;53.816;8.902;2023-07-16T11:22:37;22.10;99.90
22558;DHT22;11445;53.816;8.902;2023-07-16T11:25:11;22.40;99.90
22558;DHT22;11445;53.816;8.902;2023-07-16T11:27:40;22.40;99.90
22558;DHT22;11445;53.816;8.902;2023-07-16T11:30:10;22.50;99.90
22558;DHT22;11445;53.816;8.902;2023-07-16T11:32:41;22.50;99.90
22558;DHT22;11445;53.816;8.902;2023-07-16T11:35:11;22.60;99.90
22558;DHT22;11445;53.816;8.902;2023-07-16T11:37:41;22.70;99.90
22558;DHT22;11445;53.816;8.902;2023-07-16T11:40:09;22.90;99.90
22558;DHT22;11445;53.816;8.902;2023-07-16T11:42:38;23.20;99.90
22558;DHT22;11445;53.816;8.902;2023-07-16T11:45:16;23.20;99.90
22558;DHT22;11445;53.816;8.902;2023-07-16T11:47:44;23.30;99.90
22558;DHT22;11445;53.816;8.902;2023-07-16T11:50:11;23.30;99.90
22558;DHT22;11445;53.816;8.902;2023-07-16T11:52:38;23.30;99.90
22558;DHT22;11445;53.816;8.902;2023-07-16T11:55:06;23.40;99.90
22558;DHT22;11445;53.816;8.902;2023-07-16T11:57:34;23.40;99.90
22558;DHT22;11445;53.816;8.902;2023-07-16T12:00:00;23.50;99.90
22558;DHT22;11445;53.816;8.902;2023-07-16T12:02:29;23.50;99.90
22558;DHT22;11445;53.816;8.902;2023-07-16T12:04:56;23.30;99.90
22558;DHT22;11445;53.816;8.902;2023-07-16T12:07:31;23.30;99.90
22558;DHT22;11445;53.816;8.902;2023-07-16T12:09:58;23.40;99.90
22558;DHT22;11445;53.816;8.902;2023-07-16T12:12:25;23.40;99.90
22558;DHT22;11445;53.816;8.902;2023-07-16T12:14:52;23.40;99.90
22558;DHT22;11445;53.816;8.902;2023-07-16T12:17:18;23.40;99.90
22558;DHT22;11445;53.816;8.902;2023-07-16T12:19:47;23.30;99.90
22558;DHT22;11445;53.816;8.902;2023-07-16T12:22:17;23.30;99.90
22558;DHT22;11445;53.816;8.902;2023-07-16T12:24:44;23.20;99.90
22558;DHT22;11445;53.816;8.902;2023-07-16T12:27:11;23.20;99.90
22558;DHT22;11445;53.816;8.902;2023-07-16T12:29:37;23.10;99.90
22558;DHT22;11445;53.816;8.902;2023-07-16T12:32:05;23.20;99.90
22558;DHT22;11445;53.816;8.902;2023-07-16T12:34:33;23.20;99.90
22558;DHT22;11445;53.816;8.902;2023-07-16T12:37:02;23.20;99.90
22558;DHT22;11445;53.816;8.902;2023-07-16T12:39:29;23.20;99.90
22558;DHT22;11445;53.816;8.902;2023-07-16T12:41:56;23.20;99.90
22558;DHT22;11445;53.816;8.902;2023-07-16T12:44:23;23.20;99.90
22558;DHT22;11445;53.816;8.902;2023-07-16T12:46:50;23.00;99.90
22558;DHT22;11445;53.816;8.902;2023-07-16T12:49:16;22.80;99.90
22558;DHT22;11445;53.816;8.902;2023-07-16T12:51:43;22.70;99.90
22558;DHT22;11445;53.816;8.902;2023-07-16T12:54:11;22.50;99.90
22558;DHT22;11445;53.816;8.902;2023-07-16T12:56:38;22.50;99.90
22558;DHT22;11445;53.816;8.902;2023-07-16T12:59:05;22.50;99.90
22558;DHT22;11445;53.816;8.902;2023-07-16T13:01:32;22.50;99.90
22558;DHT22;11445;53.816;8.902;2023-07-16T13:03:59;22.50;99.90
22558;DHT22;11445;53.816;8.902;2023-07-16T13:06:26;22.60;99.90
22558;DHT22;11445;53.816;8.902;2023-07-16T13:08:52;22.70;99.90
22558;DHT22;11445;53.816;8.902;2023-07-16T13:11:21;22.60;99.90
22558;DHT22;11445;53.816;8.902;2023-07-16T13:13:47;22.70;99.90
22558;DHT22;11445;53.816;8.902;2023-07-16T13:16:14;22.70;99.90
22558;DHT22;11445;53.816;8.902;2023-07-16T13:18:41;22.60;99.90
22558;DHT22;11445;53.816;8.902;2023-07-16T13:21:08;22.70;99.90
22558;DHT22;11445;53.816;8.902;2023-07-16T13:23:34;22.70;99.90
22558;DHT22;11445;53.816;8.902;2023-07-16T13:26:01;22.70;99.90
22558;DHT22;11445;53.816;8.902;2023-07-16T13:28:30;22.70;99.90
22558;DHT22;11445;53.816;8.902;2023-07-16T13:30:56;22.60;99.90
22558;DHT22;11445;53.816;8.902;2023-07-16T13:33:23;22.50;99.90
22558;DHT22;11445;53.816;8.902;2023-07-16T13:35:50;22.40;99.90
22558;DHT22;11445;53.816;8.902;2023-07-16T13:38:17;22.40;99.90
22558;DHT22;11445;53.816;8.902;2023-07-16T13:40:43;22.60;99.90
22558;DHT22;11445;53.816;8.902;2023-07-16T13:43:10;22.70;99.90
22558;DHT22;11445;53.816;8.902;2023-07-16T13:45:39;22.80;99.90
22558;DHT22;11445;53.816;8.902;2023-07-16T13:48:06;22.70;99.90
22558;DHT22;11445;53.816;8.902;2023-07-16T13:50:33;22.70;99.90
22558;DHT22;11445;53.816;8.902;2023-07-16T13:53:00;22.70;99.90
22558;DHT22;11445;53.816;8.902;2023-07-16T13:55:27;22.80;99.90
22558;DHT22;11445;53.816;8.902;2023-07-16T13:57:54;22.80;99.90
22558;DHT22;11445;53.816;8.902;2023-07-16T14:00:21;22.80;99.90
22558;DHT22;11445;53.816;8.902;2023-07-16T14:02:49;22.70;99.90
22558;DHT22;11445;53.816;8.902;2023-07-16T14:05:16;22.80;99.90
22558;DHT22;11445;53.816;8.902;2023-07-16T14:07:43;22.80;99.90
22558;DHT22;11445;53.816;8.902;2023-07-16T14:10:10;22.70;99.90
22558;DHT22;11445;53.816;8.902;2023-07-16T14:12:36;22.70;99.90
22558;DHT22;11445;53.816;8.902;2023-07-16T14:15:04;22.80;99.90
22558;DHT22;11445;53.816;8.902;2023-07-16T14:17:31;22.80;99.90
22558;DHT22;11445;53.816;8.902;2023-07-16T14:19:59;22.70;99.90
22558;DHT22;11445;53.816;8.902;2023-07-16T14:22:26;22.60;99.90
22558;DHT22;11445;53.816;8.902;2023-07-16T14:24:53;22.50;99.90
22558;DHT22;11445;53.816;8.902;2023-07-16T14:27:20;22.40;99.90
22558;DHT22;11445;53.816;8.902;2023-07-16T14:29:47;22.30;99.90
22558;DHT22;11445;53.816;8.902;2023-07-16T14:32:14;22.30;99.90
22558;DHT22;11445;53.816;8.902;2023-07-16T14:34:40;22.20;99.90
22558;DHT22;11445;53.816;8.902;2023-07-16T14:37:09;22.10;99.90
22558;DHT22;11445;53.816;8.902;2023-07-16T14:39:35;22.10;99.90
22558;DHT22;11445;53.816;8.902;2023-07-16T14:42:03;22.10;99.90
22558;DHT22;11445;53.816;8.902;2023-07-16T14:44:30;22.10;99.90
22558;DHT22;11445;53.816;8.902;2023-07-16T14:46:57;22.20;99.90
22558;DHT22;11445;53.816;8.902;2023-07-16T14:49:23;22.20;99.90
22558;DHT22;11445;53.816;8.902;2023-07-16T14:51:50;22.30;99.90
22558;DHT22;11445;53.816;8.902;2023-07-16T14:54:18;22.40;99.90
22558;DHT22;11445;53.816;8.902;2023-07-16T14:56:45;22.60;99.90
22558;DHT22;11445;53.816;8.902;2023-07-16T14:59:13;22.90;99.90
22558;DHT22;11445;53.816;8.902;2023-07-16T15:01:39;23.10;99.90
22558;DHT22;11445;53.816;8.902;2023-07-16T15:04:06;23.10;99.90
22558;DHT22;11445;53.816;8.902;2023-07-16T15:06:33;23.10;99.90
22558;DHT22;11445;53.816;8.902;2023-07-16T15:09:00;23.00;99.90
22558;DHT22;11445;53.816;8.902;2023-07-16T15:11:28;23.00;99.90
22558;DHT22;11445;53.816;8.902;2023-07-16T15:13:55;22.90;99.90
22558;DHT22;11445;53.816;8.902;2023-07-16T15:16:22;22.90;99.90
22558;DHT22;11445;53.816;8.902;2023-07-16T15:18:48;23.00;99.90
22558;DHT22;11445;53.816;8.902;2023-07-16T15:21:15;23.10;99.90
22558;DHT22;11445;53.816;8.902;2023-07-16T15:23:43;23.00;99.90
22558;DHT22;11445;53.816;8.902;2023-07-16T15:26:10;23.00;99.90
22558;DHT22;11445;53.816;8.902;2023-07-16T15:28:39;23.10;99.90
22558;DHT22;11445;53.816;8.902;2023-07-16T15:31:09;23.20;99.90
22558;DHT22;11445;53.816;8.902;2023-07-16T15:33:37;23.20;99.90